Time;durP1;ratioP1;P1;durP2;ratioP2;P2;SDS_P1;SDS_P2;PMS_P1;PMS_P2;Temp;Humidity;BMP_temperature;BMP_pressure;BME280_temperature;BME280_humidity;BME280_pressure;Samples;Min_cycle;Max_cycle;Signal;HPM_P1;HPM_P2
2023/03/20 00:02:05;;;;;;;15.80;7.60;;;8.90;99.90;;;;;;5078491;28;20297;-60
2023/03/20 00:04:33;;;;;;;16.40;7.37;;;8.90;99.90;;;;;;5074908;28;20198;-60
2023/03/20 00:07:00;;;;;;;13.80;6.63;;;8.90;99.90;;;;;;5078401;28;20301;-60
2023/03/20 00:09:27;;;;;;;14.70;7.07;;;8.90;99.90;;;;;;5061805;28;20714;-60
2023/03/20 00:11:54;;;;;;;15.63;7.10;;;8.90;99.90;;;;;;5078041;28;20200;-63
2023/03/20 00:14:23;;;;;;;16.90;7.10;;;8.90;99.90;;;;;;5060118;28;20207;-62
2023/03/20 00:16:51;;;;;;;14.63;6.63;;;8.90;99.90;;;;;;5078777;28;20651;-60
2023/03/20 00:19:22;;;;;;;16.53;6.63;;;8.90;99.90;;;;;;5079879;28;20907;-60
2023/03/20 00:21:50;;;;;;;18.43;6.77;;;8.90;99.90;;;;;;5078299;28;20672;-60
2023/03/20 00:24:18;;;;;;;13.17;7.63;;;8.80;99.90;;;;;;5073943;28;20260;-60
2023/03/20 00:26:46;;;;;;;13.90;6.60;;;8.90;99.90;;;;;;5060723;28;20757;-60
2023/03/20 00:29:29;;;;;;;11.43;6.30;;;8.80;99.90;;;;;;5080152;28;20298;-61
2023/03/20 00:31:57;;;;;;;13.30;7.13;;;8.90;99.90;;;;;;5068046;28;20208;-60
2023/03/20 00:34:28;;;;;;;14.10;6.27;;;8.90;99.90;;;;;;5075363;28;20929;-60
2023/03/20 00:36:56;;;;;;;10.57;5.97;;;8.70;99.90;;;;;;5060159;28;20213;-60
2023/03/20 00:39:23;;;;;;;14.07;5.70;;;8.70;99.90;;;;;;5078954;28;20700;-60
2023/03/20 00:42:01;;;;;;;11.30;6.30;;;8.80;99.90;;;;;;5079262;28;20213;-60
2023/03/20 00:44:42;;;;;;;13.07;6.30;;;8.80;99.90;;;;;;5079809;28;20283;-61
2023/03/20 00:47:19;;;;;;;13.00;5.63;;;8.70;99.90;;;;;;5100475;28;20279;-60
2023/03/20 00:49:49;;;;;;;10.43;5.47;;;8.70;99.90;;;;;;5079572;28;20201;-60
2023/03/20 00:52:17;;;;;;;11.50;5.67;;;8.70;99.90;;;;;;5099985;28;20274;-60
2023/03/20 00:54:45;;;;;;;12.13;6.20;;;8.60;99.90;;;;;;5078779;28;20258;-60
2023/03/20 00:57:14;;;;;;;14.87;6.40;;;8.60;99.90;;;;;;5098028;28;20281;-60
2023/03/20 01:00:03;;;;;;;11.77;6.37;;;8.60;99.90;;;;;;5077066;28;20312;-60
2023/03/20 01:02:31;;;;;;;12.53;5.97;;;8.70;99.90;;;;;;5096905;28;20252;-64
2023/03/20 01:04:59;;;;;;;9.70;5.77;;;8.60;99.90;;;;;;5095985;28;20217;-60
2023/03/20 01:07:26;;;;;;;11.63;5.80;;;8.60;99.90;;;;;;5080985;28;20303;-60
2023/03/20 01:09:53;;;;;;;7.63;5.70;;;8.70;99.90;;;;;;5099675;28;20560;-60
2023/03/20 01:12:20;;;;;;;14.50;6.13;;;8.60;99.90;;;;;;5080639;28;20209;-60
2023/03/20 01:14:53;;;;;;;14.43;6.10;;;8.60;99.90;;;;;;5097474;28;20303;-60
2023/03/20 01:17:22;;;;;;;10.47;6.23;;;8.50;99.90;;;;;;5087477;28;20542;-60
2023/03/20 01:19:48;;;;;;;11.97;6.23;;;8.40;99.90;;;;;;5096873;28;20543;-60
2023/03/20 01:22:18;;;;;;;14.77;6.43;;;8.30;99.90;;;;;;5098526;28;20295;-60
2023/03/20 01:24:46;;;;;;;14.07;7.00;;;8.20;99.90;;;;;;5093324;28;20272;-60
2023/03/20 01:27:15;;;;;;;11.87;5.73;;;8.30;99.90;;;;;;5095469;28;20232;-60
2023/03/20 01:29:42;;;;;;;13.27;5.83;;;8.30;99.90;;;;;;5096167;28;20242;-60
2023/03/20 01:32:16;;;;;;;12.27;6.57;;;8.30;99.90;;;;;;5097006;28;20601;-60
2023/03/20 01:34:43;;;;;;;14.53;6.13;;;8.30;99.90;;;;;;5096679;28;20734;-60
2023/03/20 01:37:26;;;;;;;16.70;6.73;;;8.30;99.90;;;;;;5098352;28;20204;-60
2023/03/20 01:39:56;;;;;;;12.50;6.50;;;8.20;99.90;;;;;;5096857;28;20239;-60
2023/03/20 01:42:23;;;;;;;13.73;6.90;;;8.20;99.90;;;;;;5095499;28;20191;-59
2023/03/20 01:44:50;;;;;;;14.00;7.33;;;8.20;99.90;;;;;;5095414;28;21143;-60
2023/03/20 01:47:21;;;;;;;11.43;6.80;;;8.20;99.90;;;;;;5098853;28;20298;-60
2023/03/20 01:50:18;;;;;;;12.93;6.73;;;8.30;99.90;;;;;;5098139;28;20765;-60
2023/03/20 01:52:46;;;;;;;12.87;6.73;;;8.30;99.90;;;;;;5097513;28;20201;-60
2023/03/20 01:55:13;;;;;;;13.60;7.07;;;8.30;99.90;;;;;;5095354;28;20217;-60
2023/03/20 01:57:40;;;;;;;16.30;7.20;;;8.40;99.90;;;;;;5095223;28;20841;-60
2023/03/20 02:00:15;;;;;;;14.03;7.00;;;8.30;99.90;;;;;;5076696;28;20287;-61
2023/03/20 02:02:45;;;;;;;12.67;7.03;;;8.40;99.90;;;;;;5097841;28;20615;-61
2023/03/20 02:05:16;;;;;;;13.73;6.60;;;8.50;99.90;;;;;;5096968;28;20290;-61
2023/03/20 02:07:50;;;;;;;12.30;8.00;;;8.50;99.90;;;;;;5082192;28;22082;-62
2023/03/20 02:10:18;;;;;;;13.93;7.90;;;8.20;99.90;;;;;;5095684;28;20197;-61
2023/03/20 02:12:47;;;;;;;18.13;8.43;;;8.00;99.90;;;;;;5099121;28;20249;-62
2023/03/20 02:15:15;;;;;;;16.67;8.33;;;7.90;99.90;;;;;;5096299;28;20309;-61
2023/03/20 02:17:43;;;;;;;13.03;7.67;;;8.00;99.90;;;;;;5079886;28;20451;-64
2023/03/20 02:20:47;;;;;;;16.23;8.60;;;8.00;99.90;;;;;;5079942;28;20211;-61
2023/03/20 02:23:57;;;;;;;15.73;9.00;;;7.90;99.90;;;;;;5098570;28;20208;-61
2023/03/20 02:26:39;;;;;;;16.90;9.17;;;7.80;99.90;;;;;;5095456;28;20339;-61
2023/03/20 02:29:38;;;;;;;16.63;9.87;;;7.70;99.90;;;;;;5079919;28;20227;-61
2023/03/20 02:32:20;;;;;;;18.27;9.50;;;7.70;99.90;;;;;;5098966;28;20204;-61
2023/03/20 02:34:55;;;;;;;17.13;9.77;;;7.70;99.90;;;;;;5094335;28;20216;-61
2023/03/20 02:37:47;;;;;;;17.87;10.27;;;7.80;99.90;;;;;;5095165;28;20775;-61
2023/03/20 02:40:26;;;;;;;20.93;10.93;;;7.90;99.90;;;;;;5097620;28;20242;-61
2023/03/20 02:43:28;;;;;;;20.10;10.57;;;7.70;99.90;;;;;;5098303;28;20299;-61
2023/03/20 02:46:13;;;;;;;21.97;10.60;;;7.60;99.90;;;;;;5073844;28;20317;-61
2023/03/20 02:48:56;;;;;;;16.63;9.90;;;7.60;99.90;;;;;;5096676;28;20197;-61
2023/03/20 02:51:46;;;;;;;20.10;10.50;;;7.50;99.90;;;;;;5095701;28;20204;-61
2023/03/20 02:54:19;;;;;;;22.70;10.83;;;7.50;99.90;;;;;;5095478;28;20199;-62
2023/03/20 02:57:19;;;;;;;22.17;10.00;;;7.60;99.90;;;;;;5097557;28;20582;-61
2023/03/20 02:59:55;;;;;;;20.80;11.43;;;7.70;99.90;;;;;;5069233;28;20210;-61
2023/03/20 03:02:39;;;;;;;19.40;11.17;;;7.60;99.90;;;;;;5100631;28;20716;-61
2023/03/20 03:05:31;;;;;;;17.90;10.47;;;7.60;99.90;;;;;;5096402;28;20665;-61
2023/03/20 03:08:01;;;;;;;19.37;10.20;;;7.60;99.90;;;;;;5100589;28;20285;-61
2023/03/20 03:10:33;;;;;;;21.33;10.80;;;7.50;99.90;;;;;;5099235;28;20189;-61
2023/03/20 03:13:02;;;;;;;19.87;10.83;;;7.50;99.90;;;;;;5099754;28;20252;-61
2023/03/20 03:15:36;;;;;;;18.60;9.90;;;7.60;99.90;;;;;;5097578;28;20234;-61
2023/03/20 03:18:06;;;;;;;21.27;10.37;;;7.70;99.90;;;;;;5099836;28;20230;-61
2023/03/20 03:20:37;;;;;;;17.63;9.90;;;7.70;99.90;;;;;;5100195;28;20238;-61
2023/03/20 03:23:05;;;;;;;20.57;11.70;;;7.60;99.90;;;;;;5101179;28;20244;-64
2023/03/20 03:25:36;;;;;;;14.27;9.07;;;7.60;99.90;;;;;;5098261;28;20775;-61
2023/03/20 03:28:36;;;;;;;17.87;10.97;;;7.40;99.90;;;;;;5101430;28;20227;-61
2023/03/20 03:31:06;;;;;;;14.97;9.30;;;7.30;99.90;;;;;;5073105;28;20229;-60
2023/03/20 03:33:38;;;;;;;17.43;9.00;;;7.30;99.90;;;;;;5100166;28;20276;-60
2023/03/20 03:36:08;;;;;;;17.23;9.70;;;7.30;99.90;;;;;;5097751;28;20294;-60
2023/03/20 03:38:50;;;;;;;16.47;9.17;;;7.40;99.90;;;;;;5099413;28;20675;-61
2023/03/20 03:41:31;;;;;;;15.37;8.63;;;7.20;99.90;;;;;;5097135;28;20285;-62
2023/03/20 03:44:32;;;;;;;17.73;9.30;;;7.10;99.90;;;;;;5099502;28;20366;-62
2023/03/20 03:47:11;;;;;;;13.40;9.27;;;7.10;99.90;;;;;;5100706;28;20302;-60
2023/03/20 03:49:47;;;;;;;15.87;8.50;;;7.20;99.90;;;;;;5097964;28;20762;-60
2023/03/20 03:52:23;;;;;;;18.00;9.50;;;7.10;99.90;;;;;;5098956;28;20225;-62
2023/03/20 03:55:05;;;;;;;15.97;9.03;;;7.20;99.90;;;;;;5099046;28;20198;-61
2023/03/20 03:57:41;;;;;;;12.77;7.30;;;7.20;99.90;;;;;;5098033;28;20267;-61
2023/03/20 04:00:12;;;;;;;16.33;9.77;;;7.10;99.90;;;;;;5099103;28;20609;-62
2023/03/20 04:02:42;;;;;;;16.77;8.63;;;7.10;99.90;;;;;;5104348;28;20633;-61
2023/03/20 04:05:11;;;;;;;12.33;8.33;;;7.10;99.90;;;;;;5096582;28;20207;-61
2023/03/20 04:07:39;;;;;;;15.10;7.93;;;7.10;99.90;;;;;;5097182;28;20251;-60
2023/03/20 04:10:06;;;;;;;16.67;8.57;;;7.10;99.90;;;;;;5079700;28;20206;-61
2023/03/20 04:12:36;;;;;;;16.20;8.73;;;7.10;99.90;;;;;;5081200;28;20191;-61
2023/03/20 04:15:03;;;;;;;14.27;7.67;;;7.10;99.90;;;;;;5078094;28;20633;-60
2023/03/20 04:17:30;;;;;;;15.50;8.73;;;7.10;99.90;;;;;;5099100;28;20250;-61
2023/03/20 04:19:57;;;;;;;14.90;8.27;;;7.10;99.90;;;;;;5095633;28;20739;-61
2023/03/20 04:22:24;;;;;;;11.73;7.67;;;7.10;99.90;;;;;;5099136;28;20557;-60
2023/03/20 04:24:51;;;;;;;14.97;8.03;;;7.10;99.90;;;;;;5079115;28;20204;-60
2023/03/20 04:27:19;;;;;;;13.57;8.87;;;7.10;99.90;;;;;;5079817;28;20225;-61
2023/03/20 04:29:46;;;;;;;12.70;7.87;;;7.00;99.90;;;;;;5081097;28;20187;-60
2023/03/20 04:32:13;;;;;;;15.70;8.50;;;6.90;99.90;;;;;;5099836;28;20230;-60
2023/03/20 04:34:41;;;;;;;15.50;9.10;;;6.90;99.90;;;;;;5099355;28;20245;-57
2023/03/20 04:37:08;;;;;;;15.17;8.17;;;6.90;99.90;;;;;;5087110;28;20281;-57
2023/03/20 04:39:36;;;;;;;15.90;9.10;;;7.00;99.90;;;;;;5098578;28;20202;-57
2023/03/20 04:42:04;;;;;;;18.20;9.33;;;6.90;99.90;;;;;;5099694;28;20566;-58
2023/03/20 04:44:31;;;;;;;15.77;8.20;;;6.80;99.90;;;;;;5094947;28;20226;-60
2023/03/20 04:46:58;;;;;;;15.60;9.10;;;6.80;99.90;;;;;;5096651;28;20310;-59
2023/03/20 04:49:25;;;;;;;12.57;8.60;;;6.70;99.90;;;;;;5063887;28;20202;-60
2023/03/20 04:51:52;;;;;;;19.33;9.00;;;6.80;99.90;;;;;;5098039;28;20512;-61
2023/03/20 04:54:19;;;;;;;17.27;9.03;;;6.80;99.90;;;;;;5096438;28;20556;-60
2023/03/20 04:56:46;;;;;;;19.27;9.27;;;6.80;99.90;;;;;;5098608;28;20366;-61
2023/03/20 04:59:13;;;;;;;14.93;7.87;;;6.80;99.90;;;;;;5098730;28;20203;-61
2023/03/20 05:01:40;;;;;;;13.63;8.43;;;6.80;99.90;;;;;;5081743;28;20273;-61
2023/03/20 05:04:07;;;;;;;14.03;8.83;;;6.80;99.90;;;;;;5098067;28;20316;-60
2023/03/20 05:06:34;;;;;;;17.70;9.20;;;6.90;99.90;;;;;;5079440;28;20579;-60
2023/03/20 05:09:02;;;;;;;16.43;8.57;;;6.80;99.90;;;;;;5099880;28;20233;-61
2023/03/20 05:11:28;;;;;;;16.17;8.67;;;6.80;99.90;;;;;;5097069;28;20297;-62
2023/03/20 05:13:55;;;;;;;22.50;8.93;;;6.90;99.90;;;;;;5098935;28;20301;-60
2023/03/20 05:16:22;;;;;;;13.07;7.77;;;6.80;99.90;;;;;;5097457;28;20322;-60
2023/03/20 05:18:49;;;;;;;16.37;8.40;;;6.80;99.90;;;;;;5082537;28;21177;-60
2023/03/20 05:21:16;;;;;;;15.07;8.10;;;6.90;99.90;;;;;;5098144;28;20650;-60
2023/03/20 05:23:43;;;;;;;15.03;8.67;;;7.00;99.90;;;;;;5099742;28;20197;-60
2023/03/20 05:26:10;;;;;;;13.63;8.57;;;7.00;99.90;;;;;;5095479;28;20200;-60
2023/03/20 05:28:37;;;;;;;15.97;9.43;;;6.80;99.90;;;;;;5099564;28;20293;-60
2023/03/20 05:31:04;;;;;;;14.83;7.83;;;6.80;99.90;;;;;;5099029;28;20225;-60
2023/03/20 05:33:31;;;;;;;15.83;8.10;;;6.90;99.90;;;;;;5081984;28;20692;-60
2023/03/20 05:35:58;;;;;;;17.40;8.57;;;7.00;99.90;;;;;;5097591;28;20672;-60
2023/03/20 05:38:25;;;;;;;14.73;8.50;;;6.90;99.90;;;;;;5081803;28;20202;-60
2023/03/20 05:40:59;;;;;;;15.50;8.50;;;6.80;99.90;;;;;;5097234;28;20632;-60
2023/03/20 05:43:27;;;;;;;14.90;7.73;;;6.90;99.90;;;;;;5079323;28;20240;-59
2023/03/20 05:45:58;;;;;;;18.43;9.10;;;6.80;99.90;;;;;;5096345;28;20659;-58
2023/03/20 05:48:25;;;;;;;14.17;9.00;;;6.80;99.90;;;;;;5099568;28;20232;-61
2023/03/20 05:50:52;;;;;;;14.17;8.07;;;6.80;99.90;;;;;;5098373;28;20287;-59
2023/03/20 05:53:19;;;;;;;15.27;8.03;;;6.80;99.90;;;;;;5080781;28;20206;-60
2023/03/20 05:55:46;;;;;;;16.43;8.33;;;6.70;99.90;;;;;;5096759;28;20292;-61
2023/03/20 05:58:13;;;;;;;15.00;8.80;;;6.80;99.90;;;;;;5097823;28;20198;-60
2023/03/20 06:00:40;;;;;;;15.87;8.80;;;6.80;99.90;;;;;;5097728;28;20297;-61
2023/03/20 06:03:07;;;;;;;16.20;8.63;;;6.90;99.90;;;;;;5098590;28;20208;-61
2023/03/20 06:05:35;;;;;;;13.17;7.90;;;6.90;99.90;;;;;;5095063;28;20209;-61
2023/03/20 06:08:03;;;;;;;15.27;8.37;;;6.90;99.90;;;;;;5098310;28;20234;-61
2023/03/20 06:10:30;;;;;;;15.77;8.23;;;7.00;99.90;;;;;;5078445;28;20293;-61
2023/03/20 06:12:59;;;;;;;13.83;8.40;;;6.90;99.90;;;;;;5098462;28;20256;-61
2023/03/20 06:15:27;;;;;;;17.30;7.63;;;7.00;99.90;;;;;;5095777;28;20217;-61
2023/03/20 06:17:55;;;;;;;18.50;8.87;;;7.00;99.90;;;;;;5092044;28;20275;-61
2023/03/20 06:20:22;;;;;;;17.40;8.13;;;7.00;99.90;;;;;;5094488;28;20205;-61
2023/03/20 06:22:49;;;;;;;22.70;8.90;;;7.00;99.90;;;;;;5080451;28;20239;-61
2023/03/20 06:25:16;;;;;;;15.87;8.07;;;7.10;99.90;;;;;;5095650;28;20672;-61
2023/03/20 06:27:44;;;;;;;14.87;7.63;;;7.10;99.90;;;;;;5077240;28;20757;-61
2023/03/20 06:30:12;;;;;;;18.90;7.97;;;7.10;99.90;;;;;;5096825;28;20552;-61
2023/03/20 06:32:39;;;;;;;11.60;7.40;;;7.10;99.90;;;;;;5102127;28;20283;-61
2023/03/20 06:35:06;;;;;;;15.50;7.30;;;7.10;99.90;;;;;;5098841;28;20259;-61
2023/03/20 06:37:35;;;;;;;17.33;7.23;;;7.20;99.90;;;;;;5082544;28;20205;-60
2023/03/20 06:40:03;;;;;;;15.10;7.87;;;7.20;99.90;;;;;;5096687;28;20609;-60
2023/03/20 06:42:30;;;;;;;13.13;7.13;;;7.20;99.90;;;;;;5082413;28;20712;-60
2023/03/20 06:44:57;;;;;;;19.30;8.10;;;7.20;99.90;;;;;;5093111;28;20305;-61
2023/03/20 06:47:24;;;;;;;15.97;7.53;;;7.20;99.90;;;;;;5069310;28;20212;-62
2023/03/20 06:49:51;;;;;;;16.33;7.47;;;7.20;99.90;;;;;;5071432;28;20240;-61
2023/03/20 06:52:21;;;;;;;15.13;7.70;;;7.30;99.90;;;;;;4705574;28;9999987;-60
2023/03/20 06:54:49;;;;;;;16.80;7.83;;;7.30;99.90;;;;;;5055902;28;20694;-60
2023/03/20 06:57:17;;;;;;;13.70;7.53;;;7.40;99.90;;;;;;5054766;28;20351;-60
2023/03/20 06:59:44;;;;;;;14.73;6.73;;;7.40;99.90;;;;;;5050278;28;20614;-60
2023/03/20 07:02:11;;;;;;;11.97;6.77;;;7.40;99.90;;;;;;5052923;28;20200;-60
2023/03/20 07:04:38;;;;;;;17.23;7.10;;;7.50;99.90;;;;;;5070460;28;20623;-61
2023/03/20 07:07:05;;;;;;;10.13;6.93;;;7.50;99.90;;;;;;5069635;28;20299;-62
2023/03/20 07:09:32;;;;;;;14.13;7.17;;;7.50;99.90;;;;;;5073381;28;21167;-60
2023/03/20 07:12:00;;;;;;;13.87;6.73;;;7.60;99.90;;;;;;5068830;28;20209;-60
2023/03/20 07:14:27;;;;;;;11.77;6.13;;;7.50;99.90;;;;;;5071761;28;22035;-60
2023/03/20 07:16:55;;;;;;;14.17;6.30;;;7.60;99.90;;;;;;5074272;28;20198;-60
2023/03/20 07:19:22;;;;;;;13.90;5.97;;;7.50;99.90;;;;;;5076942;28;20224;-60
2023/03/20 07:21:50;;;;;;;15.03;6.57;;;7.50;99.90;;;;;;5054078;28;20292;-58
2023/03/20 07:24:17;;;;;;;14.73;6.93;;;7.50;99.90;;;;;;5078781;28;20253;-58
2023/03/20 07:26:44;;;;;;;12.37;6.13;;;7.50;99.90;;;;;;5056148;28;20244;-58
2023/03/20 07:29:12;;;;;;;13.17;6.50;;;7.50;99.90;;;;;;5055422;28;20221;-58
2023/03/20 07:31:39;;;;;;;16.57;6.80;;;7.50;99.90;;;;;;5073897;28;20293;-58
2023/03/20 07:34:06;;;;;;;11.10;6.33;;;7.70;99.90;;;;;;5074048;28;20206;-58
2023/03/20 07:36:33;;;;;;;15.50;6.03;;;7.60;99.90;;;;;;5058864;28;20272;-58
2023/03/20 07:39:00;;;;;;;12.77;6.83;;;7.60;99.90;;;;;;5075465;28;20200;-58
2023/03/20 07:41:27;;;;;;;14.67;6.47;;;7.70;99.90;;;;;;5069920;28;21656;-61
2023/03/20 07:43:54;;;;;;;11.77;6.37;;;7.70;99.90;;;;;;5072981;28;20246;-58
2023/03/20 07:46:21;;;;;;;12.83;6.00;;;7.70;99.90;;;;;;5071968;28;20779;-58
2023/03/20 07:48:48;;;;;;;13.87;6.23;;;7.70;99.90;;;;;;5056971;28;20269;-58
2023/03/20 07:51:15;;;;;;;17.03;6.13;;;7.70;99.90;;;;;;5071911;28;20233;-59
2023/03/20 07:53:41;;;;;;;11.43;5.93;;;7.70;99.90;;;;;;5073911;28;20249;-58
2023/03/20 07:56:09;;;;;;;14.90;6.73;;;7.80;99.90;;;;;;5073158;28;20289;-57
2023/03/20 07:58:36;;;;;;;11.53;5.67;;;7.80;99.90;;;;;;5074957;28;20213;-57
2023/03/20 08:01:03;;;;;;;13.03;5.47;;;7.70;99.90;;;;;;5057106;28;20220;-64
2023/03/20 08:03:30;;;;;;;16.17;6.33;;;7.60;99.90;;;;;;5076895;28;20286;-59
2023/03/20 08:05:57;;;;;;;14.20;6.57;;;7.70;99.90;;;;;;5076163;28;20598;-57
2023/03/20 08:08:24;;;;;;;11.47;5.87;;;7.60;99.90;;;;;;5076735;28;20207;-58
2023/03/20 08:10:51;;;;;;;12.43;5.30;;;7.60;99.90;;;;;;5072274;28;20287;-57
2023/03/20 08:13:18;;;;;;;12.10;5.30;;;7.60;99.90;;;;;;5074993;28;20606;-60
2023/03/20 08:15:46;;;;;;;10.20;6.27;;;7.80;99.90;;;;;;5056250;28;20201;-57
2023/03/20 08:18:13;;;;;;;10.17;5.60;;;7.80;99.90;;;;;;5069829;28;20226;-57
2023/03/20 08:20:40;;;;;;;11.50;6.33;;;7.90;99.90;;;;;;5055112;28;20204;-57
2023/03/20 08:23:06;;;;;;;9.47;5.37;;;7.90;99.90;;;;;;5073085;28;20237;-58
2023/03/20 08:25:33;;;;;;;12.13;5.50;;;7.90;99.90;;;;;;5070096;28;20244;-59
2023/03/20 08:28:01;;;;;;;10.23;5.47;;;8.00;99.90;;;;;;5074418;28;20206;-58
2023/03/20 08:30:28;;;;;;;12.10;4.87;;;7.90;99.90;;;;;;5076990;28;20202;-58
2023/03/20 08:32:57;;;;;;;10.67;5.33;;;8.00;99.90;;;;;;5072730;28;20204;-57
2023/03/20 08:35:24;;;;;;;13.70;5.23;;;8.00;99.90;;;;;;5058158;28;20259;-58
2023/03/20 08:38:12;;;;;;;10.00;4.70;;;8.00;99.90;;;;;;5076864;28;20215;-61
2023/03/20 08:40:40;;;;;;;10.30;5.00;;;8.00;99.90;;;;;;5076128;28;20302;-60
2023/03/20 08:43:08;;;;;;;9.53;5.43;;;8.00;99.90;;;;;;5073078;28;20224;-60
2023/03/20 08:45:35;;;;;;;13.23;5.10;;;8.00;99.90;;;;;;5076840;28;20655;-61
2023/03/20 08:48:02;;;;;;;16.30;5.40;;;8.00;99.90;;;;;;5096478;28;20308;-59
2023/03/20 08:50:30;;;;;;;13.30;5.07;;;8.20;99.90;;;;;;5076519;28;20210;-59
2023/03/20 08:52:57;;;;;;;10.50;4.27;;;8.20;99.90;;;;;;5092683;28;20296;-60
2023/03/20 08:55:24;;;;;;;11.80;5.23;;;8.20;99.90;;;;;;5095007;27;20640;-60
2023/03/20 08:57:52;;;;;;;11.33;4.30;;;8.20;99.90;;;;;;5093789;28;20209;-60
2023/03/20 09:00:19;;;;;;;12.73;4.80;;;8.10;99.90;;;;;;5090974;28;20200;-60
2023/03/20 09:02:46;;;;;;;12.00;5.07;;;8.10;99.90;;;;;;5091474;28;20195;-60
2023/03/20 09:05:13;;;;;;;11.17;5.03;;;8.20;99.90;;;;;;5051710;28;20627;-60
2023/03/20 09:07:40;;;;;;;10.80;4.90;;;8.20;99.90;;;;;;5070611;28;20669;-60
2023/03/20 09:10:08;;;;;;;10.60;5.57;;;8.20;99.90;;;;;;5093202;28;20197;-60
2023/03/20 09:12:35;;;;;;;15.50;4.97;;;8.00;99.90;;;;;;5055071;28;20791;-60
2023/03/20 09:15:03;;;;;;;12.47;5.07;;;8.00;99.90;;;;;;5094726;28;20233;-60
2023/03/20 09:17:30;;;;;;;12.50;5.07;;;8.00;99.90;;;;;;5097278;28;20335;-61
2023/03/20 09:19:57;;;;;;;13.57;4.73;;;8.00;99.90;;;;;;5074191;28;20218;-61
2023/03/20 09:22:24;;;;;;;14.50;5.10;;;7.90;99.90;;;;;;5089765;28;20239;-61
2023/03/20 09:24:51;;;;;;;9.47;4.47;;;7.90;99.90;;;;;;5087582;28;20205;-61
2023/03/20 09:27:18;;;;;;;15.53;4.30;;;8.00;99.90;;;;;;5089140;28;20626;-60
2023/03/20 09:29:44;;;;;;;10.10;4.27;;;8.00;99.90;;;;;;5091399;28;20265;-61
2023/03/20 09:32:13;;;;;;;11.60;5.00;;;7.80;99.90;;;;;;5093727;28;20236;-61
2023/03/20 09:34:40;;;;;;;9.60;4.43;;;7.90;99.90;;;;;;5088868;27;20211;-61
2023/03/20 09:37:08;;;;;;;7.00;4.17;;;8.10;99.90;;;;;;5090270;28;20238;-61
2023/03/20 09:39:35;;;;;;;10.13;4.40;;;8.10;99.90;;;;;;5091008;28;20208;-63
2023/03/20 09:42:17;;;;;;;12.33;4.73;;;8.00;99.90;;;;;;5075766;28;20208;-66
2023/03/20 09:45:19;;;;;;;9.03;4.57;;;8.00;99.90;;;;;;5090405;28;20202;-62
2023/03/20 09:47:53;;;;;;;11.60;4.90;;;8.10;99.90;;;;;;5087710;28;20198;-57
2023/03/20 09:50:38;;;;;;;10.07;4.50;;;8.00;99.90;;;;;;5089222;28;20283;-57
2023/03/20 09:53:19;;;;;;;11.23;4.47;;;8.00;99.90;;;;;;5075091;28;20213;-57
2023/03/20 09:55:47;;;;;;;8.03;5.00;;;7.90;99.90;;;;;;5083895;28;20206;-57
2023/03/20 09:58:20;;;;;;;12.13;5.30;;;8.00;99.90;;;;;;5093703;28;20201;-57
2023/03/20 10:00:47;;;;;;;9.73;5.17;;;8.00;99.90;;;;;;5094957;28;20664;-57
2023/03/20 10:03:34;;;;;;;13.70;4.83;;;8.00;99.90;;;;;;5093788;28;20303;-57
2023/03/20 10:06:10;;;;;;;11.03;5.10;;;7.90;99.90;;;;;;5094710;28;20246;-60
2023/03/20 10:08:38;;;;;;;12.20;5.97;;;8.00;99.90;;;;;;5094408;28;20746;-57
2023/03/20 10:11:43;;;;;;;8.37;4.60;;;8.00;99.90;;;;;;5094122;28;21018;-58
2023/03/20 10:14:21;;;;;;;11.60;5.30;;;8.00;99.90;;;;;;5077384;28;20297;-58
2023/03/20 10:17:00;;;;;;;8.57;4.60;;;7.90;99.90;;;;;;5073530;28;20649;-57
2023/03/20 10:19:30;;;;;;;11.77;4.87;;;7.90;99.90;;;;;;5095199;28;20221;-57
2023/03/20 10:22:21;;;;;;;13.77;5.70;;;8.00;99.90;;;;;;5078472;28;21125;-57
2023/03/20 10:25:07;;;;;;;17.47;6.00;;;8.20;99.90;;;;;;5095488;28;20202;-57
2023/03/20 10:27:42;;;;;;;11.23;4.70;;;8.20;99.90;;;;;;5092010;28;20199;-57
2023/03/20 10:30:21;;;;;;;9.07;4.67;;;8.30;99.90;;;;;;5095852;28;20390;-57
2023/03/20 10:33:08;;;;;;;13.00;4.50;;;8.10;99.90;;;;;;5095021;28;20291;-58
2023/03/20 10:36:02;;;;;;;7.43;4.23;;;8.20;99.90;;;;;;5054856;28;20229;-60
2023/03/20 10:38:40;;;;;;;13.17;5.10;;;8.20;99.90;;;;;;5095728;28;20208;-61
2023/03/20 10:41:17;;;;;;;11.03;4.73;;;8.20;99.90;;;;;;5096277;28;20206;-63
2023/03/20 10:43:48;;;;;;;11.53;4.37;;;8.20;99.90;;;;;;5095823;28;20209;-64
2023/03/20 10:46:32;;;;;;;7.43;4.40;;;8.30;99.90;;;;;;5094765;28;20590;-64
2023/03/20 10:49:17;;;;;;;10.43;4.67;;;8.30;99.90;;;;;;5096653;28;20227;-62
2023/03/20 10:51:54;;;;;;;7.83;3.83;;;8.50;99.90;;;;;;5088760;28;20301;-62
2023/03/20 10:54:29;;;;;;;11.50;4.50;;;8.40;99.90;;;;;;5095153;28;20238;-63
2023/03/20 10:56:59;;;;;;;11.10;4.27;;;8.30;99.90;;;;;;5097525;28;20199;-62
2023/03/20 10:59:43;;;;;;;7.10;3.80;;;8.40;99.90;;;;;;5078304;28;20255;-62
2023/03/20 11:02:12;;;;;;;11.23;3.90;;;8.40;99.90;;;;;;5096630;28;20244;-62
2023/03/20 11:04:39;;;;;;;12.77;4.60;;;8.50;99.90;;;;;;5093462;28;20300;-62
2023/03/20 11:07:31;;;;;;;8.23;4.20;;;8.40;99.90;;;;;;5095434;28;20334;-62
2023/03/20 11:10:03;;;;;;;10.23;3.97;;;8.50;99.90;;;;;;5076901;28;20319;-61
2023/03/20 11:12:35;;;;;;;10.77;4.47;;;8.40;99.90;;;;;;5089695;28;20213;-62
2023/03/20 11:15:13;;;;;;;13.00;4.23;;;8.50;99.90;;;;;;5092280;28;20229;-62
2023/03/20 11:17:40;;;;;;;8.97;4.03;;;8.50;99.90;;;;;;5095874;28;20244;-62
2023/03/20 11:20:09;;;;;;;8.23;4.77;;;8.70;99.90;;;;;;5100577;28;20227;-62
2023/03/20 11:22:37;;;;;;;8.43;4.00;;;8.70;99.90;;;;;;5099634;28;20203;-62
2023/03/20 11:25:05;;;;;;;5.80;3.90;;;8.60;99.90;;;;;;5095016;28;20204;-62
2023/03/20 11:27:33;;;;;;;11.37;4.73;;;8.70;99.90;;;;;;5095495;28;20613;-62
2023/03/20 11:30:04;;;;;;;10.47;4.23;;;8.80;99.90;;;;;;5100607;28;20220;-63
2023/03/20 11:32:40;;;;;;;12.47;4.97;;;8.90;99.90;;;;;;5095870;28;20257;-63
2023/03/20 11:35:18;;;;;;;11.63;4.93;;;8.90;99.90;;;;;;5097130;28;20236;-61
2023/03/20 11:37:48;;;;;;;13.73;5.27;;;8.90;99.90;;;;;;5094400;28;20225;-62
2023/03/20 11:40:22;;;;;;;9.13;4.00;;;8.70;99.90;;;;;;5077100;28;20204;-62
2023/03/20 11:43:19;;;;;;;15.37;4.70;;;8.90;99.90;;;;;;5099113;28;20204;-62
2023/03/20 11:45:58;;;;;;;14.53;4.30;;;8.90;99.90;;;;;;5098113;28;20315;-62
2023/03/20 11:48:46;;;;;;;11.40;4.53;;;8.90;99.90;;;;;;5098260;28;20672;-62
2023/03/20 11:51:21;;;;;;;14.07;4.17;;;9.10;99.90;;;;;;5097440;28;20200;-62
2023/03/20 11:53:48;;;;;;;8.90;4.23;;;9.10;99.90;;;;;;5092294;28;20300;-62
2023/03/20 11:56:21;;;;;;;12.17;4.33;;;9.00;99.90;;;;;;5095053;28;20592;-62
2023/03/20 11:58:59;;;;;;;7.93;4.47;;;9.10;99.90;;;;;;5083886;27;20617;-62
2023/03/20 12:01:35;;;;;;;9.00;4.50;;;9.10;99.90;;;;;;5099160;28;20218;-62
2023/03/20 12:04:15;;;;;;;11.07;4.57;;;9.10;99.90;;;;;;5098751;28;20292;-64
2023/03/20 12:06:50;;;;;;;10.40;4.50;;;9.10;99.90;;;;;;5097946;28;20205;-62
2023/03/20 12:09:30;;;;;;;10.37;4.60;;;9.20;99.90;;;;;;5095433;28;20348;-62
2023/03/20 12:12:12;;;;;;;8.33;4.50;;;9.00;99.90;;;;;;5097988;28;20251;-62
2023/03/20 12:14:55;;;;;;;10.70;4.37;;;9.00;99.90;;;;;;5076427;28;20202;-62
2023/03/20 12:17:46;;;;;;;14.70;4.57;;;9.10;99.90;;;;;;5099095;28;20320;-62
2023/03/20 12:20:43;;;;;;;12.60;4.93;;;9.20;99.90;;;;;;5080213;28;20213;-62
2023/03/20 12:23:13;;;;;;;9.10;4.53;;;9.20;99.90;;;;;;5099528;28;20207;-62
2023/03/20 12:26:09;;;;;;;9.67;4.30;;;9.20;99.90;;;;;;5078588;28;20232;-62
2023/03/20 12:28:39;;;;;;;14.20;5.20;;;9.10;99.90;;;;;;5098645;28;20198;-62
2023/03/20 12:31:25;;;;;;;8.20;3.90;;;9.10;99.90;;;;;;5098401;28;20225;-62
2023/03/20 12:34:04;;;;;;;11.30;4.80;;;9.20;99.90;;;;;;5098353;28;20196;-62
2023/03/20 12:36:38;;;;;;;13.47;4.90;;;9.10;99.90;;;;;;5100522;28;20223;-61
2023/03/20 12:39:11;;;;;;;9.87;5.17;;;9.20;99.90;;;;;;5096910;28;20203;-62
2023/03/20 12:42:15;;;;;;;16.00;5.40;;;9.30;99.90;;;;;;5097988;28;20258;-61
2023/03/20 12:45:04;;;;;;;10.20;5.07;;;9.30;99.90;;;;;;5095201;28;20613;-62
2023/03/20 12:48:01;;;;;;;14.90;5.10;;;9.50;99.90;;;;;;5093016;28;20696;-62
2023/03/20 12:50:35;;;;;;;14.43;5.53;;;9.60;99.90;;;;;;5061518;28;20791;-62
2023/03/20 12:53:20;;;;;;;13.60;4.93;;;9.40;99.90;;;;;;5097580;28;20600;-62
2023/03/20 12:56:09;;;;;;;9.50;4.70;;;9.40;99.90;;;;;;5095040;28;20212;-62
2023/03/20 12:58:35;;;;;;;11.10;4.60;;;9.50;99.90;;;;;;5078696;28;20617;-62
2023/03/20 13:01:18;;;;;;;13.70;4.77;;;9.50;99.90;;;;;;5094693;28;20234;-63
2023/03/20 13:04:09;;;;;;;13.60;5.20;;;9.70;99.90;;;;;;5092984;28;20201;-62
2023/03/20 13:06:55;;;;;;;12.73;5.00;;;9.80;99.90;;;;;;5097240;28;20182;-62
2023/03/20 13:10:00;;;;;;;9.27;4.40;;;9.70;99.90;;;;;;5098073;28;20297;-62
2023/03/20 13:12:51;;;;;;;11.87;3.77;;;9.60;99.90;;;;;;5096336;28;20720;-62
2023/03/20 13:15:50;;;;;;;14.20;5.07;;;9.60;99.90;;;;;;5095292;28;20268;-62
2023/03/20 13:18:46;;;;;;;8.90;4.43;;;9.70;99.90;;;;;;5097075;28;20221;-62